createdAt,value
2019-02-10T00:01:55.274Z,52.83
2019-02-10T00:04:22.988Z,59.50
2019-02-10T00:07:00.288Z,71.30
2019-02-10T00:09:27.848Z,64.47
2019-02-10T00:11:55.512Z,64.23
2019-02-10T00:14:23.258Z,61.90
2019-02-10T00:16:50.941Z,63.07
2019-02-10T00:19:18.584Z,60.63
2019-02-10T00:21:46.218Z,59.47
2019-02-10T00:24:13.738Z,60.90
2019-02-10T00:26:41.399Z,45.53
2019-02-10T00:29:08.991Z,55.47
2019-02-10T00:31:36.572Z,50.07
2019-02-10T00:34:04.162Z,55.87
2019-02-10T00:36:33.329Z,53.33
2019-02-10T00:39:01.258Z,51.13
2019-02-10T00:41:28.904Z,52.00
2019-02-10T00:43:56.633Z,52.57
2019-02-10T00:46:24.292Z,49.53
2019-02-10T00:48:51.868Z,56.37
2019-02-10T00:51:19.433Z,56.03
2019-02-10T00:53:47.183Z,55.50
2019-02-10T00:56:14.816Z,46.27
2019-02-10T00:58:42.441Z,44.77
2019-02-10T01:01:10.087Z,46.40
2019-02-10T01:03:37.736Z,46.37
2019-02-10T01:06:05.356Z,43.23
2019-02-10T01:08:33.001Z,45.77
2019-02-10T01:11:00.698Z,49.90
2019-02-10T01:13:28.312Z,50.23
2019-02-10T01:15:59.222Z,43.73
2019-02-10T01:18:26.780Z,42.23
2019-02-10T01:20:54.506Z,47.20
2019-02-10T01:23:22.106Z,42.67
2019-02-10T01:25:49.770Z,49.03
2019-02-10T01:28:17.568Z,41.57
2019-02-10T01:30:45.095Z,43.13
2019-02-10T01:33:12.722Z,43.43
2019-02-10T01:35:40.467Z,40.63
2019-02-10T01:38:08.173Z,39.40
2019-02-10T01:40:35.808Z,37.10
2019-02-10T01:43:03.397Z,39.00
2019-02-10T01:45:31.033Z,39.03
2019-02-10T01:47:58.642Z,38.87
2019-02-10T01:50:26.226Z,39.93
2019-02-10T01:52:53.989Z,34.93
2019-02-10T01:55:21.623Z,34.07
2019-02-10T01:57:49.276Z,33.57
2019-02-10T02:00:17.047Z,40.30
2019-02-10T02:02:44.946Z,37.47
2019-02-10T02:05:12.944Z,36.77
2019-02-10T02:07:40.513Z,37.80
2019-02-10T02:10:17.605Z,37.87
2019-02-10T02:12:45.469Z,38.03
2019-02-10T02:15:13.826Z,38.40
2019-02-10T02:17:41.527Z,33.30
2019-02-10T02:20:09.752Z,32.37
2019-02-10T02:22:37.423Z,32.40
2019-02-10T02:25:08.163Z,32.23
2019-02-10T02:27:35.909Z,36.93
2019-02-10T02:30:05.123Z,39.37
2019-02-10T02:32:32.833Z,35.53
2019-02-10T02:35:00.596Z,37.63
2019-02-10T02:37:28.372Z,35.37
2019-02-10T02:39:56.050Z,32.97
2019-02-10T02:42:23.944Z,39.43
2019-02-10T02:44:51.570Z,40.60
2019-02-10T02:47:19.266Z,35.83
2019-02-10T02:49:46.964Z,36.67
2019-02-10T02:52:14.749Z,36.40
2019-02-10T02:54:42.334Z,36.30
2019-02-10T02:57:09.985Z,36.33
2019-02-10T02:59:37.824Z,36.67
2019-02-10T03:02:05.467Z,36.63
2019-02-10T03:04:34.952Z,39.63
2019-02-10T03:07:02.543Z,43.93
2019-02-10T03:09:30.286Z,44.40
2019-02-10T03:11:57.938Z,43.37
2019-02-10T03:14:25.526Z,45.93
2019-02-10T03:16:53.304Z,41.50
2019-02-10T03:19:20.905Z,45.67
2019-02-10T03:21:48.600Z,49.00
2019-02-10T03:24:16.202Z,43.80
2019-02-10T03:26:43.795Z,40.73
2019-02-10T03:29:11.389Z,47.10
2019-02-10T03:31:38.925Z,46.07
2019-02-10T03:34:06.584Z,51.47
2019-02-10T03:36:34.235Z,45.63
2019-02-10T03:39:02.009Z,48.83
2019-02-10T03:41:29.614Z,51.27
2019-02-10T03:43:57.287Z,49.93
2019-02-10T03:46:24.993Z,47.90
2019-02-10T03:48:52.739Z,52.37
2019-02-10T03:51:20.411Z,46.77
2019-02-10T03:53:47.980Z,52.93
2019-02-10T03:56:15.593Z,52.10
2019-02-10T03:58:43.180Z,50.23
2019-02-10T04:01:10.805Z,47.40
2019-02-10T04:03:38.491Z,45.17
2019-02-10T04:06:06.153Z,48.97
2019-02-10T04:08:33.801Z,45.23
2019-02-10T04:11:01.424Z,49.80
2019-02-10T04:13:29.065Z,48.73
2019-02-10T04:15:56.651Z,49.37
2019-02-10T04:18:24.260Z,51.00
2019-02-10T04:20:52.153Z,51.00
2019-02-10T04:23:19.933Z,49.33
2019-02-10T04:25:47.406Z,48.10
2019-02-10T04:28:15.271Z,49.53
2019-02-10T04:30:42.921Z,47.93
2019-02-10T04:33:10.565Z,48.40
2019-02-10T04:35:38.120Z,49.30
2019-02-10T04:38:05.789Z,48.53
2019-02-10T04:40:33.498Z,52.90
2019-02-10T04:43:01.155Z,59.10
2019-02-10T04:45:28.918Z,59.63
2019-02-10T04:47:56.599Z,57.93
2019-02-10T04:50:24.220Z,57.07
2019-02-10T04:52:51.974Z,57.60
2019-02-10T04:55:19.556Z,58.37
2019-02-10T04:57:47.200Z,56.03
2019-02-10T05:00:14.877Z,52.90
2019-02-10T05:02:42.559Z,61.07
2019-02-10T05:05:10.139Z,58.33
2019-02-10T05:07:37.784Z,52.97
2019-02-10T05:10:06.150Z,51.13
2019-02-10T05:12:33.828Z,54.73
2019-02-10T05:15:01.428Z,55.13
2019-02-10T05:17:29.080Z,53.90
2019-02-10T05:19:56.772Z,55.73
2019-02-10T05:22:24.536Z,52.17
2019-02-10T05:24:52.156Z,48.23
2019-02-10T05:27:19.800Z,48.70
2019-02-10T05:29:47.493Z,43.70
2019-02-10T05:32:15.306Z,45.27
2019-02-10T05:34:43.015Z,44.90
2019-02-10T05:37:10.630Z,42.50
2019-02-10T05:39:38.385Z,50.17
2019-02-10T05:42:05.996Z,44.20
2019-02-10T05:44:33.719Z,45.47
2019-02-10T05:47:01.463Z,46.00
2019-02-10T05:49:29.081Z,44.23
2019-02-10T05:51:56.729Z,47.67
2019-02-10T05:54:24.396Z,45.93
2019-02-10T05:56:52.164Z,49.30
2019-02-10T05:59:19.811Z,48.93
2019-02-10T06:02:40.391Z,43.07
2019-02-10T06:05:19.232Z,49.20
2019-02-10T06:13:10.755Z,51.70
2019-02-10T06:15:38.399Z,57.73
2019-02-10T06:18:06.016Z,61.40
2019-02-10T06:20:33.586Z,49.53
2019-02-10T06:23:01.387Z,49.93
2019-02-10T06:25:29.053Z,45.47
2019-02-10T06:27:56.686Z,47.50
2019-02-10T06:30:24.325Z,44.37
2019-02-10T06:32:51.940Z,46.70
2019-02-10T06:35:19.639Z,44.03
2019-02-10T06:37:47.210Z,51.73
2019-02-10T06:40:14.824Z,49.93
2019-02-10T06:42:42.622Z,55.23
2019-02-10T06:45:11.765Z,39.73
2019-02-10T06:47:39.581Z,43.53
2019-02-10T06:50:09.896Z,41.23
2019-02-10T06:52:38.010Z,39.40
2019-02-10T06:55:07.420Z,39.17
2019-02-10T06:57:35.095Z,36.93
2019-02-10T07:00:20.544Z,42.97
2019-02-10T07:03:28.848Z,38.80
2019-02-10T07:05:56.406Z,37.27
2019-02-10T07:08:30.382Z,37.07
2019-02-10T07:10:53.458Z,36.70
2019-02-10T07:13:24.718Z,37.77
2019-02-10T07:16:28.564Z,34.87
2019-02-10T07:19:32.287Z,35.37
2019-02-10T07:22:00.888Z,36.30
2019-02-10T07:24:43.829Z,36.60
2019-02-10T07:27:27.474Z,34.50
2019-02-10T07:30:48.982Z,30.30
2019-02-10T07:33:41.191Z,29.63
2019-02-10T07:36:36.622Z,33.33
2019-02-10T07:39:47.635Z,35.03
2019-02-10T07:42:43.864Z,32.53
2019-02-10T07:45:54.544Z,32.57
2019-02-10T07:48:56.487Z,32.53
2019-02-10T07:51:53.539Z,36.33
2019-02-10T07:55:07.183Z,44.33
2019-02-10T07:58:16.448Z,47.07
2019-02-10T08:01:00.688Z,33.50
2019-02-10T08:03:53.540Z,38.87
2019-02-10T08:06:26.879Z,35.27
2019-02-10T08:09:12.503Z,36.93
2019-02-10T08:12:21.956Z,39.57
2019-02-10T08:15:15.750Z,40.90
2019-02-10T08:17:53.597Z,35.67
2019-02-10T08:20:53.129Z,37.17
2019-02-10T08:23:30.134Z,36.67
2019-02-10T08:26:21.341Z,35.97
2019-02-10T08:28:58.615Z,36.80
2019-02-10T08:32:03.883Z,37.67
2019-02-10T08:35:07.962Z,33.27
2019-02-10T08:38:16.040Z,34.17
2019-02-10T08:41:20.719Z,32.23
2019-02-10T08:44:22.477Z,35.90
2019-02-10T08:47:22.835Z,34.43
2019-02-10T08:50:28.215Z,32.60
2019-02-10T08:53:16.308Z,28.33
2019-02-10T08:55:44.221Z,27.10
2019-02-10T08:58:11.824Z,29.43
2019-02-10T09:00:39.699Z,38.17
2019-02-10T09:03:07.419Z,27.37
2019-02-10T09:05:35.086Z,30.63
2019-02-10T09:08:02.657Z,27.13
2019-02-10T09:10:32.828Z,31.37
2019-02-10T09:13:00.499Z,28.00
2019-02-10T09:15:28.166Z,28.50
2019-02-10T09:17:55.798Z,25.80
2019-02-10T09:20:23.679Z,27.73
2019-02-10T09:22:51.368Z,30.07
2019-02-10T09:25:18.980Z,29.20
2019-02-10T09:27:46.687Z,29.43
2019-02-10T09:30:14.211Z,31.23
2019-02-10T09:32:41.829Z,29.50
2019-02-10T09:35:09.381Z,31.77
2019-02-10T09:37:37.032Z,33.30
2019-02-10T09:40:05.077Z,32.53
2019-02-10T09:42:32.772Z,29.57
2019-02-10T09:45:00.342Z,29.37
2019-02-10T09:47:28.120Z,30.67
2019-02-10T09:49:55.811Z,27.03
2019-02-10T09:52:23.534Z,24.97
2019-02-10T09:54:51.146Z,29.80
2019-02-10T09:57:18.860Z,26.03
2019-02-10T09:59:46.613Z,25.33
2019-02-10T10:02:14.420Z,26.07
2019-02-10T10:04:42.048Z,32.23
2019-02-10T10:07:09.686Z,28.50
2019-02-10T10:09:37.298Z,30.33
2019-02-10T10:12:04.928Z,28.07
2019-02-10T10:14:32.577Z,28.43
2019-02-10T10:17:00.169Z,30.97
2019-02-10T10:19:27.846Z,28.50
2019-02-10T10:21:55.625Z,33.53
2019-02-10T10:24:23.271Z,34.83
2019-02-10T10:26:50.852Z,31.57
2019-02-10T10:29:18.431Z,24.50
2019-02-10T10:31:46.153Z,28.77
2019-02-10T10:34:13.919Z,28.33
2019-02-10T10:36:41.569Z,27.50
2019-02-10T10:39:09.204Z,24.27
2019-02-10T10:41:37.020Z,25.10
2019-02-10T10:44:04.605Z,25.00
2019-02-10T10:46:32.234Z,28.43
2019-02-10T10:49:00.005Z,23.27
2019-02-10T10:51:27.573Z,20.43
2019-02-10T10:53:55.245Z,21.00
2019-02-10T10:56:22.925Z,25.83
2019-02-10T10:58:50.526Z,20.30
2019-02-10T11:01:25.119Z,24.37
2019-02-10T11:03:47.934Z,20.10
2019-02-10T11:06:15.523Z,23.20
2019-02-10T11:08:43.468Z,22.27
2019-02-10T11:11:11.394Z,24.93
2019-02-10T11:13:41.170Z,22.50
2019-02-10T11:16:08.631Z,24.10
2019-02-10T11:18:36.344Z,21.87
2019-02-10T11:21:03.938Z,23.60
2019-02-10T11:23:31.534Z,23.77
2019-02-10T11:25:59.138Z,21.27
2019-02-10T11:28:26.940Z,22.50
2019-02-10T11:30:54.582Z,20.33
2019-02-10T11:33:22.232Z,22.07
2019-02-10T11:35:49.790Z,20.40
2019-02-10T11:38:17.652Z,22.37
2019-02-10T11:40:45.219Z,23.57
2019-02-10T11:43:12.829Z,21.47
2019-02-10T11:45:40.487Z,19.50
2019-02-10T11:48:08.143Z,21.17
2019-02-10T11:50:35.739Z,18.93
2019-02-10T11:53:03.452Z,19.50
2019-02-10T11:55:31.177Z,19.17
2019-02-10T11:57:59.247Z,20.40
2019-02-10T12:00:26.947Z,18.23
2019-02-10T12:02:54.547Z,19.47
2019-02-10T12:05:22.723Z,19.50
2019-02-10T12:07:50.485Z,20.80
2019-02-10T12:10:18.093Z,21.90
2019-02-10T12:12:47.588Z,21.80
2019-02-10T12:15:15.357Z,21.20
2019-02-10T12:17:42.964Z,22.30
2019-02-10T12:20:10.793Z,20.73
2019-02-10T12:22:49.981Z,21.60
2019-02-10T12:25:13.603Z,19.80
2019-02-10T12:27:41.323Z,23.03
2019-02-10T12:30:11.864Z,20.70
2019-02-10T12:32:39.620Z,20.53
2019-02-10T12:35:07.638Z,20.20
2019-02-10T12:37:35.357Z,20.33
2019-02-10T12:40:03.387Z,21.90
2019-02-10T12:42:31.256Z,20.70
2019-02-10T12:44:59.186Z,24.57
2019-02-10T12:47:26.932Z,21.43
2019-02-10T12:49:54.699Z,22.93
2019-02-10T12:52:22.396Z,32.63
2019-02-10T12:54:50.092Z,27.77
2019-02-10T12:57:17.824Z,19.93
2019-02-10T12:59:45.473Z,22.67
2019-02-10T13:02:13.529Z,19.90
2019-02-10T13:04:41.269Z,19.23
2019-02-10T13:07:09.207Z,19.57
2019-02-10T13:09:36.851Z,22.83
2019-02-10T13:12:04.662Z,25.27
2019-02-10T13:14:32.287Z,17.40
2019-02-10T13:17:00.036Z,20.83
2019-02-10T13:19:27.695Z,20.00
2019-02-10T13:21:55.421Z,20.07
2019-02-10T13:24:23.037Z,19.20
2019-02-10T13:26:50.763Z,21.57
2019-02-10T13:29:18.624Z,19.87
2019-02-10T13:31:46.395Z,21.80
2019-02-10T13:34:14.175Z,19.83
2019-02-10T13:36:41.975Z,27.73
2019-02-10T13:39:10.230Z,26.67
2019-02-10T13:41:37.310Z,21.20
2019-02-10T13:44:06.029Z,21.93
2019-02-10T13:46:33.622Z,22.87
2019-02-10T13:49:01.369Z,21.20
2019-02-10T13:51:29.157Z,23.30
2019-02-10T13:53:56.897Z,23.20
2019-02-10T13:56:24.672Z,20.73
2019-02-10T13:58:52.285Z,25.63
2019-02-10T14:01:19.964Z,22.90
2019-02-10T14:03:47.695Z,22.90
2019-02-10T14:06:15.504Z,21.83
2019-02-10T14:08:43.178Z,21.67
2019-02-10T14:11:11.107Z,21.73
2019-02-10T14:13:38.809Z,21.10
2019-02-10T14:16:06.561Z,19.30
2019-02-10T14:18:34.254Z,15.03
2019-02-10T14:21:02.611Z,13.00
2019-02-10T14:23:30.480Z,14.50
2019-02-10T14:25:58.289Z,14.87
2019-02-10T14:28:25.973Z,15.63
2019-02-10T14:30:53.766Z,13.40
2019-02-10T14:33:21.827Z,11.70
2019-02-10T14:35:49.514Z,12.70
2019-02-10T14:38:17.219Z,11.97
2019-02-10T14:40:45.119Z,11.57
2019-02-10T14:43:12.758Z,11.63
2019-02-10T14:45:40.441Z,12.63
2019-02-10T14:48:08.157Z,11.87
2019-02-10T14:50:35.871Z,12.33
2019-02-10T14:53:03.916Z,10.17
2019-02-10T14:55:31.634Z,13.87
2019-02-10T14:57:59.194Z,14.73
2019-02-10T15:00:26.887Z,11.13
2019-02-10T15:02:54.907Z,10.40
2019-02-10T15:05:22.890Z,10.87
2019-02-10T15:07:50.694Z,9.97
2019-02-10T15:10:18.800Z,9.07
2019-02-10T15:12:46.639Z,9.83
2019-02-10T15:15:15.631Z,10.43
2019-02-10T15:17:43.226Z,6.77
2019-02-10T15:20:10.888Z,7.70
2019-02-10T15:22:41.046Z,6.70
2019-02-10T15:25:09.250Z,6.17
2019-02-10T15:27:37.554Z,10.17
2019-02-10T15:30:06.497Z,6.83
2019-02-10T15:32:34.274Z,8.53
2019-02-10T15:35:02.310Z,6.80
2019-02-10T15:37:30.089Z,4.90
2019-02-10T15:39:59.741Z,6.23
2019-02-10T15:42:27.348Z,4.93
2019-02-10T15:44:55.125Z,5.60
2019-02-10T15:47:22.603Z,4.00
2019-02-10T15:49:50.567Z,5.10
2019-02-10T15:52:18.433Z,5.27
2019-02-10T15:54:46.135Z,4.10
2019-02-10T15:57:13.787Z,5.53
2019-02-10T15:59:41.593Z,5.40
2019-02-10T16:02:09.253Z,4.70
2019-02-10T16:04:36.944Z,4.87
2019-02-10T16:07:04.586Z,5.07
2019-02-10T16:09:32.296Z,5.63
2019-02-10T16:12:00.104Z,6.60
2019-02-10T16:14:31.123Z,7.13
2019-02-10T16:16:59.419Z,6.37
2019-02-10T16:19:28.019Z,6.63
2019-02-10T16:21:55.907Z,5.63
2019-02-10T16:24:23.699Z,5.83
2019-02-10T16:26:53.199Z,6.93
2019-02-10T16:29:21.386Z,8.40
2019-02-10T16:31:49.229Z,8.73
2019-02-10T16:34:16.901Z,7.13
2019-02-10T16:36:44.696Z,6.70
2019-02-10T16:39:12.908Z,7.97
2019-02-10T16:41:40.720Z,4.27
2019-02-10T16:44:08.354Z,5.43
2019-02-10T16:46:35.933Z,5.57
2019-02-10T16:49:03.763Z,4.27
2019-02-10T16:51:31.539Z,4.80
2019-02-10T16:53:59.217Z,4.47
2019-02-10T16:56:26.878Z,4.33
2019-02-10T16:58:54.707Z,3.63
2019-02-10T17:01:22.299Z,5.60
2019-02-10T17:03:49.929Z,4.90
2019-02-10T17:06:17.747Z,3.83
2019-02-10T17:08:45.377Z,4.30
2019-02-10T17:11:14.390Z,4.30
2019-02-10T17:13:42.397Z,4.70
2019-02-10T17:16:10.224Z,4.37
2019-02-10T17:18:38.026Z,4.67
2019-02-10T17:21:05.872Z,5.63
2019-02-10T17:23:33.573Z,5.27
2019-02-10T17:26:01.453Z,6.33
2019-02-10T17:28:29.208Z,5.90
2019-02-10T17:30:56.882Z,4.83
2019-02-10T17:33:24.468Z,5.20
2019-02-10T17:35:52.195Z,3.93
2019-02-10T17:38:19.831Z,4.57
2019-02-10T17:41:10.433Z,4.07
2019-02-10T17:43:38.145Z,3.57
2019-02-10T17:46:05.779Z,3.90
2019-02-10T17:48:33.617Z,3.87
2019-02-10T17:51:01.483Z,3.10
2019-02-10T17:53:29.187Z,4.27
2019-02-10T17:55:56.836Z,4.93
2019-02-10T17:58:24.499Z,3.23
2019-02-10T18:00:52.175Z,5.80
2019-02-10T18:03:19.891Z,5.97
2019-02-10T18:05:47.717Z,4.17
2019-02-10T18:08:15.439Z,3.90
2019-02-10T18:10:43.084Z,4.50
2019-02-10T18:13:10.894Z,5.37
2019-02-10T18:16:06.878Z,6.63
2019-02-10T18:18:59.801Z,6.40
2019-02-10T18:21:42.634Z,4.00
2019-02-10T18:24:44.709Z,5.07
2019-02-10T18:27:31.991Z,5.97
2019-02-10T18:30:19.223Z,5.83
2019-02-10T18:32:56.278Z,8.87
2019-02-10T18:35:40.711Z,5.73
2019-02-10T18:38:30.675Z,5.13
2019-02-10T18:41:11.564Z,5.30
2019-02-10T18:43:51.100Z,4.30
2019-02-10T18:46:33.940Z,9.07
2019-02-10T18:49:11.775Z,7.70
2019-02-10T18:52:10.598Z,8.03
2019-02-10T18:54:55.791Z,6.07
2019-02-10T18:57:35.845Z,9.33
2019-02-10T19:00:24.315Z,6.10
2019-02-10T19:03:17.318Z,6.00
2019-02-10T19:06:03.013Z,5.43
2019-02-10T19:08:39.117Z,4.50
2019-02-10T19:11:26.438Z,5.40
2019-02-10T19:14:10.151Z,6.17
2019-02-10T19:16:55.484Z,5.63
2019-02-10T19:20:00.709Z,8.40
2019-02-10T19:22:46.098Z,7.87
2019-02-10T19:25:23.212Z,8.00
2019-02-10T19:28:08.615Z,4.80
2019-02-10T19:30:50.930Z,4.30
2019-02-10T19:33:36.462Z,5.53
2019-02-10T19:36:35.744Z,5.93
2019-02-10T19:39:27.524Z,6.37
2019-02-10T19:42:20.238Z,6.03
2019-02-10T19:45:19.832Z,4.10
2019-02-10T19:48:05.768Z,5.10
2019-02-10T19:51:07.865Z,5.80
2019-02-10T19:53:58.682Z,3.90
2019-02-10T19:56:54.609Z,4.50
2019-02-10T19:59:40.204Z,4.97
2019-02-10T20:02:29.255Z,2.97
2019-02-10T20:05:10.564Z,5.23
2019-02-10T20:08:15.624Z,6.63
2019-02-10T20:11:05.314Z,3.73
2019-02-10T20:13:38.483Z,4.63
2019-02-10T20:16:20.446Z,5.10
2019-02-10T20:19:13.610Z,3.70
2019-02-10T20:22:12.456Z,2.73
2019-02-10T20:24:50.982Z,3.53
2019-02-10T20:27:43.937Z,3.30
2019-02-10T20:30:31.153Z,3.63
2019-02-10T20:33:16.742Z,3.77
2019-02-10T20:36:16.042Z,2.33
2019-02-10T20:39:03.064Z,2.43
2019-02-10T20:41:40.134Z,2.60
2019-02-10T20:44:32.845Z,2.63
2019-02-10T20:47:22.942Z,1.83
2019-02-10T20:50:03.629Z,2.20
2019-02-10T20:52:49.180Z,2.90
2019-02-10T20:55:39.176Z,1.97
2019-02-10T20:58:28.449Z,2.30
2019-02-10T21:01:14.087Z,3.27
2019-02-10T21:04:07.133Z,2.67
2019-02-10T21:06:57.165Z,2.10
2019-02-10T21:09:42.983Z,2.07
2019-02-10T21:12:42.367Z,2.80
2019-02-10T21:15:35.400Z,2.93
2019-02-10T21:18:28.530Z,2.03
2019-02-10T21:21:05.265Z,2.47
2019-02-10T21:24:01.522Z,1.87
2019-02-10T21:26:48.549Z,2.77
2019-02-10T21:29:38.275Z,2.77
2019-02-10T21:32:34.292Z,3.67
2019-02-10T21:35:15.467Z,2.00
2019-02-10T21:38:11.713Z,3.00
2019-02-10T21:41:07.391Z,4.33
2019-02-10T21:43:51.071Z,3.17
2019-02-10T21:46:25.888Z,3.67
2019-02-10T21:49:03.305Z,3.60
2019-02-10T21:51:30.976Z,4.00
2019-02-10T21:53:58.597Z,2.53
2019-02-10T21:56:26.216Z,2.60
2019-02-10T21:58:53.794Z,3.30
2019-02-10T22:01:21.433Z,3.07
2019-02-10T22:03:49.081Z,2.00
2019-02-10T22:06:16.817Z,4.80
2019-02-10T22:08:44.505Z,1.77
2019-02-10T22:11:12.196Z,2.13
2019-02-10T22:13:40.051Z,2.03
2019-02-10T22:16:07.655Z,1.83
2019-02-10T22:18:35.172Z,2.17
2019-02-10T22:21:02.924Z,2.93
2019-02-10T22:23:30.606Z,2.77
2019-02-10T22:25:58.287Z,2.17
2019-02-10T22:28:25.823Z,1.83
2019-02-10T22:30:53.567Z,2.10
2019-02-10T22:33:21.217Z,2.20
2019-02-10T22:35:48.881Z,2.27
2019-02-10T22:38:16.477Z,2.77
2019-02-10T22:40:44.088Z,2.73
2019-02-10T22:43:11.675Z,2.63
2019-02-10T22:45:39.274Z,3.90
2019-02-10T22:48:06.879Z,4.10
2019-02-10T22:50:34.556Z,5.47
2019-02-10T22:53:02.212Z,5.90
2019-02-10T22:55:29.869Z,4.33
2019-02-10T22:57:57.498Z,4.80
2019-02-10T23:00:48.574Z,4.53
2019-02-10T23:03:16.617Z,3.23
2019-02-10T23:05:44.683Z,4.10
2019-02-10T23:08:12.533Z,3.47
2019-02-10T23:10:40.218Z,4.47
2019-02-10T23:13:07.955Z,3.63
2019-02-10T23:15:35.822Z,3.77
2019-02-10T23:18:03.752Z,3.63
2019-02-10T23:20:31.812Z,3.70
2019-02-10T23:22:59.682Z,3.93
2019-02-10T23:25:27.361Z,1.80
2019-02-10T23:27:55.096Z,1.97
2019-02-10T23:30:22.928Z,1.37
2019-02-10T23:32:50.839Z,2.07
2019-02-10T23:35:18.762Z,2.00
2019-02-10T23:37:46.662Z,1.70
2019-02-10T23:40:14.775Z,2.33
2019-02-10T23:42:42.949Z,2.37
2019-02-10T23:45:10.568Z,2.90
2019-02-10T23:47:38.434Z,1.93
2019-02-10T23:50:08.479Z,2.73
2019-02-10T23:52:36.737Z,3.37
2019-02-10T23:55:08.187Z,1.70
2019-02-10T23:57:36.029Z,0.93
